AirNav   TITAN Aviation Fuels
 
 1171 users online  

TS14 Smith Flying Service Airport
De Leon, Texas, USA

GOING TO DE LEON?


FAA INFORMATION EFFECTIVE 17 JUNE 2021

Location

FAA Identifier: TS14
Lat/Long: 32-06-31.2000N 098-29-16.8000W
32-06.520000N 098-29.280000W
32.1086667,-98.4880000
(estimated)
Elevation: 1275 ft. / 389 m (estimated)
Variation: 07E (1995)
From city: 2 miles E of DE LEON, TX
Time zone: UTC -5 (UTC -6 during Standard Time)
Zip code: 76444

Airport Operations

Airport use: Private use. Permission required prior to landing
Activation date: 02/1999
Control tower: no
ARTCC: FORT WORTH CENTER
FSS: FORT WORTH FLIGHT SERVICE STATION
Attendance: CONTINUOUS
Wind indicator: yes
Segmented circle: no

Airport Communications

WX AWOS-3 at MKN (13 nm SW): 118.575 (325-356-7032)
WX AWOS-3 at SEP (17 nm E): 118.075 (254-965-8672)

Nearby radio navigation aids

VOR radial/distance  VOR name  Freq  Var
BWDr054/27.2BROWNWOOD VOR/DME108.6008E

Airport Services

Runway Information

Runway 18/36

Dimensions: 2350 x 25 ft. / 716 x 8 m
Surface: asphalt
RUNWAY 18  RUNWAY 36
Traffic pattern: leftleft
Obstructions: none50 ft. pline, 750 ft. from runway

Airport Ownership and Management from official FAA records

Ownership: Privately-owned
Owner: TODD & DEANNA DOWNS
PO BOX 137
DE LEON, TX 76444
Phone 254-893-3744
Manager: TODD DOWNS
PO BOX 137
DE LEON, TX 76444
Phone 254-893-3744

Airport Operational Statistics

Aircraft based on the field: 2
Single engine airplanes: 2
    

Additional Remarks

FOR CD CTC FORT WORTH ARTCC AT 817-858-7584.

Instrument Procedures

There are no published instrument procedures at TS14.

Some nearby airports with instrument procedures:

KMKN - Comanche County-City Airport (13 nm SW)
KSEP - Stephenville Clark Regional Airport (17 nm E)
KETN - Eastland Municipal Airport (25 nm NW)
KBWD - Brownwood Regional Airport (30 nm SW)
KGZN - Gregory M Simmons Memorial Airport (31 nm NW)
 
Loc | Ops | Rwys | IFR | FBO | Links
Com | Nav | Svcs | Stats | Notes

City of Fort Worth
 
Area around TS14 (Smith Flying Service Airport)
 
Road maps at: MapQuest Bing Google
 
Aerial photo
No photo
 
Sectional chart

 
Airport distance calculator
Flying to Smith Flying Service Airport? Find the distance to fly.

From to TS14

Sunrise and sunset
Times for 17-Jun-2021
 Local
(UTC-5)
 Zulu
(UTC)
Morning civil twilight06:0011:00
Sunrise06:2811:28
Sunset20:4101:41
Evening civil twilight21:1002:10

Current date and time
Zulu (UTC)  18-Jun-2021 02:10:16
Local (UTC-5)  17-Jun-2021 21:10:16
 
METAR
KMKN 
13nm SW 
180155Z AUTO 12003KT 10SM CLR 28/19 A3000 RMK AO2 T02840186
KSEP 
18nm E 
180155Z AUTO 10003KT 10SM CLR 29/19 A3002 RMK AO2 T02860190
KETN 
25nm NW 
180155Z AUTO 00000KT 10SM CLR 25/20 A3000 RMK AO2 T02460202
TAF
NOTAMs
Click for the latest NOTAMs
NOTAMs are issued by the DoD/FAA and will open in a separate window not controlled by AirNav.

 

 
 

Would you like to see your business listed on this page?

 If your business provides an interesting product or service to pilots, flight crews, aircraft, or users of the Smith Flying Service Airport, you should consider listing it here.  To start the listing process, click on the button below
 
Add a business
 

Other Pages about Smith Flying Service Airport

Update a link
 
Copyright © AirNav, LLC. All rights reserved. Privacy Policy  Contact